Back to top

Cody, WY weather

Yellowstone Regional Airport (AWOS), Cody, WY: 6/27/2022 20:56
Visibility10 statute milesclear sky
View 7-Day Forecast
Area Summary
Sky/CloudsSky Clear
Weather [last 24 hours]None
Pressure30.25 in.Hg (1025 hPa)
3-hour Pressure Tendency0.002953 in.Hg (0.1 hPa) Decreasing, then increasing
Dew Point43 °F (6.1 °C)
Relative Humidity 34 %
Temperature73 °F (22.8 °C)red thermometer
Reading TimeMinimum to Maximum Temperature
6-hr ending 6/27@17:5675 °F to 81 °F (23.9 °C to 27.2 °C)
6-hr ending 6/27@11:5653.1 °F to 75.9 °F (11.7 °C to 24.4 °C)
6-hr ending 6/27@05:5648.9 °F to 57.9 °F (9.4 °C to 14.4 °C)
6-hr ending 6/26@23:5655 °F to 75 °F (12.8 °C to 23.9 °C)
24-hr ending 6/27@00:5641 °F to 75 °F (5 °C to 23.9 °C)
Wind4.6 MPH (4 KT) green arrow pointing 292.5 degrees
Wind FromWest/Northwest (300 Degrees)
Twilight Begins04:58Sunshine Yesterday
Sunrise05:35N/A
Sunset21:04
Twilight Ends21:40
METARKCOD 280256Z AUTO 30004KT 10SM CLR 23/06 A3025 RMK AO2 SLP201 T02280061 55001
Tags: